sensor_id;sensor_type;location;lat;lon;timestamp;P1;durP1;ratioP1;P2;durP2;ratioP2
18726;SDS011;9492;51.888;5.186;2024-01-30T00:00:42;11.77;;;8.40;;
18726;SDS011;9492;51.888;5.186;2024-01-30T00:03:08;10.77;;;8.90;;
18726;SDS011;9492;51.888;5.186;2024-01-30T00:05:34;11.73;;;8.17;;
18726;SDS011;9492;51.888;5.186;2024-01-30T00:08:00;13.23;;;8.70;;
18726;SDS011;9492;51.888;5.186;2024-01-30T00:10:26;11.83;;;7.97;;
18726;SDS011;9492;51.888;5.186;2024-01-30T00:12:52;9.63;;;8.00;;
18726;SDS011;9492;51.888;5.186;2024-01-30T00:15:20;10.87;;;7.93;;
18726;SDS011;9492;51.888;5.186;2024-01-30T00:17:47;10.03;;;7.50;;
18726;SDS011;9492;51.888;5.186;2024-01-30T00:20:13;9.40;;;7.80;;
18726;SDS011;9492;51.888;5.186;2024-01-30T00:22:39;12.27;;;8.13;;
18726;SDS011;9492;51.888;5.186;2024-01-30T00:25:10;9.33;;;7.50;;
18726;SDS011;9492;51.888;5.186;2024-01-30T00:27:36;9.33;;;7.40;;
18726;SDS011;9492;51.888;5.186;2024-01-30T00:30:02;12.47;;;7.90;;
18726;SDS011;9492;51.888;5.186;2024-01-30T00:32:29;9.87;;;7.80;;
18726;SDS011;9492;51.888;5.186;2024-01-30T00:35:00;10.00;;;7.70;;
18726;SDS011;9492;51.888;5.186;2024-01-30T00:37:27;9.23;;;7.33;;
18726;SDS011;9492;51.888;5.186;2024-01-30T00:39:57;10.50;;;7.73;;
18726;SDS011;9492;51.888;5.186;2024-01-30T00:42:23;10.40;;;7.90;;
18726;SDS011;9492;51.888;5.186;2024-01-30T00:44:50;10.20;;;7.33;;
18726;SDS011;9492;51.888;5.186;2024-01-30T00:47:16;10.57;;;7.50;;
18726;SDS011;9492;51.888;5.186;2024-01-30T00:49:42;10.47;;;7.93;;
18726;SDS011;9492;51.888;5.186;2024-01-30T00:52:08;9.97;;;7.43;;
18726;SDS011;9492;51.888;5.186;2024-01-30T00:54:45;9.23;;;7.57;;
18726;SDS011;9492;51.888;5.186;2024-01-30T00:57:12;9.60;;;7.33;;
18726;SDS011;9492;51.888;5.186;2024-01-30T00:59:38;9.97;;;7.13;;
18726;SDS011;9492;51.888;5.186;2024-01-30T01:02:04;11.60;;;7.90;;
18726;SDS011;9492;51.888;5.186;2024-01-30T01:04:33;10.23;;;7.00;;
18726;SDS011;9492;51.888;5.186;2024-01-30T01:07:02;9.37;;;7.60;;
18726;SDS011;9492;51.888;5.186;2024-01-30T01:09:28;10.83;;;7.57;;
18726;SDS011;9492;51.888;5.186;2024-01-30T01:11:54;11.13;;;7.63;;
18726;SDS011;9492;51.888;5.186;2024-01-30T01:14:21;11.97;;;7.13;;
18726;SDS011;9492;51.888;5.186;2024-01-30T01:16:47;9.03;;;8.00;;
18726;SDS011;9492;51.888;5.186;2024-01-30T01:19:13;10.07;;;7.17;;
18726;SDS011;9492;51.888;5.186;2024-01-30T01:21:45;9.73;;;7.43;;
18726;SDS011;9492;51.888;5.186;2024-01-30T01:24:12;11.20;;;7.13;;
18726;SDS011;9492;51.888;5.186;2024-01-30T01:26:38;12.63;;;8.17;;
18726;SDS011;9492;51.888;5.186;2024-01-30T01:29:08;8.37;;;6.97;;
18726;SDS011;9492;51.888;5.186;2024-01-30T01:34:12;9.17;;;7.30;;
18726;SDS011;9492;51.888;5.186;2024-01-30T01:36:39;9.17;;;7.10;;
18726;SDS011;9492;51.888;5.186;2024-01-30T01:39:05;10.00;;;7.73;;
18726;SDS011;9492;51.888;5.186;2024-01-30T01:41:31;9.73;;;7.53;;
18726;SDS011;9492;51.888;5.186;2024-01-30T01:44:00;9.27;;;7.43;;
18726;SDS011;9492;51.888;5.186;2024-01-30T01:46:27;12.20;;;7.90;;
18726;SDS011;9492;51.888;5.186;2024-01-30T01:48:54;10.67;;;7.10;;
18726;SDS011;9492;51.888;5.186;2024-01-30T01:51:21;10.43;;;7.63;;
18726;SDS011;9492;51.888;5.186;2024-01-30T01:53:47;10.30;;;7.80;;
18726;SDS011;9492;51.888;5.186;2024-01-30T01:56:14;10.77;;;8.37;;
18726;SDS011;9492;51.888;5.186;2024-01-30T01:58:43;10.67;;;7.97;;
18726;SDS011;9492;51.888;5.186;2024-01-30T02:01:10;9.63;;;7.83;;
18726;SDS011;9492;51.888;5.186;2024-01-30T02:03:36;12.53;;;7.40;;
18726;SDS011;9492;51.888;5.186;2024-01-30T02:06:05;10.70;;;7.60;;
18726;SDS011;9492;51.888;5.186;2024-01-30T02:08:31;10.93;;;7.30;;
18726;SDS011;9492;51.888;5.186;2024-01-30T02:11:09;10.43;;;7.40;;
18726;SDS011;9492;51.888;5.186;2024-01-30T02:13:36;9.70;;;7.03;;
18726;SDS011;9492;51.888;5.186;2024-01-30T02:16:12;10.87;;;7.83;;
18726;SDS011;9492;51.888;5.186;2024-01-30T02:18:38;10.07;;;7.50;;
18726;SDS011;9492;51.888;5.186;2024-01-30T02:21:10;10.30;;;7.13;;
18726;SDS011;9492;51.888;5.186;2024-01-30T02:23:37;9.47;;;7.60;;
18726;SDS011;9492;51.888;5.186;2024-01-30T02:26:03;8.97;;;7.47;;
18726;SDS011;9492;51.888;5.186;2024-01-30T02:28:30;8.67;;;7.17;;
18726;SDS011;9492;51.888;5.186;2024-01-30T02:33:26;11.80;;;7.67;;
18726;SDS011;9492;51.888;5.186;2024-01-30T02:35:53;9.67;;;7.73;;
18726;SDS011;9492;51.888;5.186;2024-01-30T02:38:19;10.70;;;7.40;;
18726;SDS011;9492;51.888;5.186;2024-01-30T02:40:45;9.97;;;7.90;;
18726;SDS011;9492;51.888;5.186;2024-01-30T02:43:11;8.07;;;6.67;;
18726;SDS011;9492;51.888;5.186;2024-01-30T02:45:37;7.87;;;6.60;;
18726;SDS011;9492;51.888;5.186;2024-01-30T02:48:03;10.60;;;7.60;;
18726;SDS011;9492;51.888;5.186;2024-01-30T02:50:29;12.07;;;7.37;;
18726;SDS011;9492;51.888;5.186;2024-01-30T02:52:55;11.70;;;7.27;;
18726;SDS011;9492;51.888;5.186;2024-01-30T02:55:37;8.97;;;6.97;;
18726;SDS011;9492;51.888;5.186;2024-01-30T02:58:03;9.37;;;6.93;;
18726;SDS011;9492;51.888;5.186;2024-01-30T03:00:29;12.00;;;6.97;;
18726;SDS011;9492;51.888;5.186;2024-01-30T03:02:55;10.37;;;7.00;;
18726;SDS011;9492;51.888;5.186;2024-01-30T03:05:22;11.87;;;7.33;;
18726;SDS011;9492;51.888;5.186;2024-01-30T03:07:48;9.23;;;7.23;;
18726;SDS011;9492;51.888;5.186;2024-01-30T03:10:14;9.43;;;7.00;;
18726;SDS011;9492;51.888;5.186;2024-01-30T03:12:40;10.33;;;6.73;;
18726;SDS011;9492;51.888;5.186;2024-01-30T03:15:06;9.30;;;7.17;;
18726;SDS011;9492;51.888;5.186;2024-01-30T03:17:32;9.47;;;6.67;;
18726;SDS011;9492;51.888;5.186;2024-01-30T03:19:58;8.70;;;7.27;;
18726;SDS011;9492;51.888;5.186;2024-01-30T03:22:27;9.07;;;6.90;;
18726;SDS011;9492;51.888;5.186;2024-01-30T03:24:53;11.90;;;7.47;;
18726;SDS011;9492;51.888;5.186;2024-01-30T03:27:21;8.90;;;6.90;;
18726;SDS011;9492;51.888;5.186;2024-01-30T03:29:48;9.27;;;6.63;;
18726;SDS011;9492;51.888;5.186;2024-01-30T03:32:14;11.47;;;7.40;;
18726;SDS011;9492;51.888;5.186;2024-01-30T03:34:43;8.20;;;6.77;;
18726;SDS011;9492;51.888;5.186;2024-01-30T03:37:09;12.23;;;7.23;;
18726;SDS011;9492;51.888;5.186;2024-01-30T03:39:43;10.20;;;7.13;;
18726;SDS011;9492;51.888;5.186;2024-01-30T03:42:09;8.43;;;6.87;;
18726;SDS011;9492;51.888;5.186;2024-01-30T03:44:35;11.43;;;7.37;;
18726;SDS011;9492;51.888;5.186;2024-01-30T03:47:01;8.90;;;6.70;;
18726;SDS011;9492;51.888;5.186;2024-01-30T03:49:29;7.83;;;6.23;;
18726;SDS011;9492;51.888;5.186;2024-01-30T03:52:04;9.77;;;7.43;;
18726;SDS011;9492;51.888;5.186;2024-01-30T03:54:30;11.00;;;6.90;;
18726;SDS011;9492;51.888;5.186;2024-01-30T03:56:56;9.83;;;7.13;;
18726;SDS011;9492;51.888;5.186;2024-01-30T03:59:22;7.53;;;6.40;;
18726;SDS011;9492;51.888;5.186;2024-01-30T04:01:52;9.03;;;7.20;;
18726;SDS011;9492;51.888;5.186;2024-01-30T04:04:18;11.30;;;7.57;;
18726;SDS011;9492;51.888;5.186;2024-01-30T04:06:44;9.33;;;6.93;;
18726;SDS011;9492;51.888;5.186;2024-01-30T04:09:10;8.90;;;6.67;;
18726;SDS011;9492;51.888;5.186;2024-01-30T04:11:38;8.87;;;6.87;;
18726;SDS011;9492;51.888;5.186;2024-01-30T04:14:11;10.43;;;7.10;;
18726;SDS011;9492;51.888;5.186;2024-01-30T04:16:37;8.87;;;7.00;;
18726;SDS011;9492;51.888;5.186;2024-01-30T04:21:34;9.83;;;7.03;;
18726;SDS011;9492;51.888;5.186;2024-01-30T04:26:31;9.03;;;7.73;;
18726;SDS011;9492;51.888;5.186;2024-01-30T04:29:02;10.73;;;6.93;;
18726;SDS011;9492;51.888;5.186;2024-01-30T04:31:30;10.57;;;6.97;;
18726;SDS011;9492;51.888;5.186;2024-01-30T04:33:59;10.27;;;6.90;;
18726;SDS011;9492;51.888;5.186;2024-01-30T04:36:25;8.20;;;6.73;;
18726;SDS011;9492;51.888;5.186;2024-01-30T04:38:52;10.13;;;7.30;;
18726;SDS011;9492;51.888;5.186;2024-01-30T04:41:23;10.43;;;7.13;;
18726;SDS011;9492;51.888;5.186;2024-01-30T04:43:52;7.90;;;7.10;;
18726;SDS011;9492;51.888;5.186;2024-01-30T04:46:18;9.07;;;6.93;;
18726;SDS011;9492;51.888;5.186;2024-01-30T04:48:44;10.90;;;7.07;;
18726;SDS011;9492;51.888;5.186;2024-01-30T04:51:10;8.97;;;7.00;;
18726;SDS011;9492;51.888;5.186;2024-01-30T04:53:36;7.67;;;6.83;;
18726;SDS011;9492;51.888;5.186;2024-01-30T04:56:02;9.93;;;7.10;;
18726;SDS011;9492;51.888;5.186;2024-01-30T04:58:28;9.50;;;7.20;;
18726;SDS011;9492;51.888;5.186;2024-01-30T05:00:55;10.67;;;6.90;;
18726;SDS011;9492;51.888;5.186;2024-01-30T05:03:21;11.43;;;7.20;;
18726;SDS011;9492;51.888;5.186;2024-01-30T05:05:48;9.83;;;7.27;;
18726;SDS011;9492;51.888;5.186;2024-01-30T05:08:14;8.33;;;7.27;;
18726;SDS011;9492;51.888;5.186;2024-01-30T05:10:40;10.53;;;7.10;;
18726;SDS011;9492;51.888;5.186;2024-01-30T05:13:06;9.30;;;7.10;;
18726;SDS011;9492;51.888;5.186;2024-01-30T05:15:41;8.27;;;6.77;;
18726;SDS011;9492;51.888;5.186;2024-01-30T05:18:07;12.17;;;6.97;;
18726;SDS011;9492;51.888;5.186;2024-01-30T05:20:33;9.57;;;6.90;;
18726;SDS011;9492;51.888;5.186;2024-01-30T05:23:02;7.80;;;6.70;;
18726;SDS011;9492;51.888;5.186;2024-01-30T05:25:28;8.63;;;6.50;;
18726;SDS011;9492;51.888;5.186;2024-01-30T05:27:54;7.80;;;6.00;;
18726;SDS011;9492;51.888;5.186;2024-01-30T05:30:20;9.20;;;6.33;;
18726;SDS011;9492;51.888;5.186;2024-01-30T05:32:46;8.73;;;6.43;;
18726;SDS011;9492;51.888;5.186;2024-01-30T05:35:12;9.57;;;7.40;;
18726;SDS011;9492;51.888;5.186;2024-01-30T05:37:38;8.00;;;6.20;;
18726;SDS011;9492;51.888;5.186;2024-01-30T05:40:12;7.87;;;6.27;;
18726;SDS011;9492;51.888;5.186;2024-01-30T05:42:38;10.33;;;6.77;;
18726;SDS011;9492;51.888;5.186;2024-01-30T05:45:04;8.17;;;6.47;;
18726;SDS011;9492;51.888;5.186;2024-01-30T05:47:30;7.03;;;5.90;;
18726;SDS011;9492;51.888;5.186;2024-01-30T05:49:56;7.40;;;5.83;;
18726;SDS011;9492;51.888;5.186;2024-01-30T05:52:25;10.47;;;6.60;;
18726;SDS011;9492;51.888;5.186;2024-01-30T05:54:51;8.43;;;5.93;;
18726;SDS011;9492;51.888;5.186;2024-01-30T05:57:17;7.30;;;5.90;;
18726;SDS011;9492;51.888;5.186;2024-01-30T05:59:44;9.30;;;5.80;;
18726;SDS011;9492;51.888;5.186;2024-01-30T06:02:10;8.00;;;5.90;;
18726;SDS011;9492;51.888;5.186;2024-01-30T06:04:43;8.17;;;6.07;;
18726;SDS011;9492;51.888;5.186;2024-01-30T06:07:11;9.03;;;6.27;;
18726;SDS011;9492;51.888;5.186;2024-01-30T06:09:37;7.60;;;6.03;;
18726;SDS011;9492;51.888;5.186;2024-01-30T06:12:05;7.33;;;5.47;;
18726;SDS011;9492;51.888;5.186;2024-01-30T06:14:31;7.83;;;5.70;;
18726;SDS011;9492;51.888;5.186;2024-01-30T06:16:58;9.60;;;6.23;;
18726;SDS011;9492;51.888;5.186;2024-01-30T06:19:27;8.97;;;5.97;;
18726;SDS011;9492;51.888;5.186;2024-01-30T06:21:53;7.63;;;5.97;;
18726;SDS011;9492;51.888;5.186;2024-01-30T06:24:19;8.20;;;5.67;;
18726;SDS011;9492;51.888;5.186;2024-01-30T06:26:48;7.57;;;5.73;;
18726;SDS011;9492;51.888;5.186;2024-01-30T06:29:14;8.13;;;5.90;;
18726;SDS011;9492;51.888;5.186;2024-01-30T06:31:41;9.27;;;5.87;;
18726;SDS011;9492;51.888;5.186;2024-01-30T06:34:08;8.40;;;5.43;;
18726;SDS011;9492;51.888;5.186;2024-01-30T06:36:34;9.23;;;5.63;;
18726;SDS011;9492;51.888;5.186;2024-01-30T06:39:01;8.03;;;5.77;;
18726;SDS011;9492;51.888;5.186;2024-01-30T06:41:27;7.57;;;6.40;;
18726;SDS011;9492;51.888;5.186;2024-01-30T06:43:53;8.03;;;5.63;;
18726;SDS011;9492;51.888;5.186;2024-01-30T06:46:19;6.90;;;5.77;;
18726;SDS011;9492;51.888;5.186;2024-01-30T06:48:45;10.70;;;6.17;;
18726;SDS011;9492;51.888;5.186;2024-01-30T06:51:11;9.03;;;6.13;;
18726;SDS011;9492;51.888;5.186;2024-01-30T06:53:37;10.40;;;5.93;;
18726;SDS011;9492;51.888;5.186;2024-01-30T06:56:03;7.97;;;5.53;;
18726;SDS011;9492;51.888;5.186;2024-01-30T06:58:29;8.23;;;6.00;;
18726;SDS011;9492;51.888;5.186;2024-01-30T07:00:55;8.53;;;6.00;;
18726;SDS011;9492;51.888;5.186;2024-01-30T07:03:21;7.60;;;6.03;;
18726;SDS011;9492;51.888;5.186;2024-01-30T07:05:47;7.70;;;5.83;;
18726;SDS011;9492;51.888;5.186;2024-01-30T07:08:14;6.63;;;5.93;;
18726;SDS011;9492;51.888;5.186;2024-01-30T07:10:42;11.97;;;5.80;;
18726;SDS011;9492;51.888;5.186;2024-01-30T07:13:08;6.97;;;6.10;;
18726;SDS011;9492;51.888;5.186;2024-01-30T07:15:35;8.63;;;6.30;;
18726;SDS011;9492;51.888;5.186;2024-01-30T07:18:02;8.07;;;5.23;;
18726;SDS011;9492;51.888;5.186;2024-01-30T07:20:28;7.03;;;5.30;;
18726;SDS011;9492;51.888;5.186;2024-01-30T07:22:56;10.23;;;5.70;;
18726;SDS011;9492;51.888;5.186;2024-01-30T07:25:22;9.43;;;6.27;;
18726;SDS011;9492;51.888;5.186;2024-01-30T07:27:51;8.10;;;5.47;;
18726;SDS011;9492;51.888;5.186;2024-01-30T07:30:17;8.90;;;5.90;;
18726;SDS011;9492;51.888;5.186;2024-01-30T07:32:43;8.63;;;6.17;;
18726;SDS011;9492;51.888;5.186;2024-01-30T07:35:09;7.83;;;5.53;;
18726;SDS011;9492;51.888;5.186;2024-01-30T07:37:36;10.40;;;5.90;;
18726;SDS011;9492;51.888;5.186;2024-01-30T07:40:02;8.53;;;5.57;;
18726;SDS011;9492;51.888;5.186;2024-01-30T07:42:29;8.87;;;5.87;;
18726;SDS011;9492;51.888;5.186;2024-01-30T07:44:55;11.13;;;6.03;;
18726;SDS011;9492;51.888;5.186;2024-01-30T07:47:21;9.27;;;6.30;;
18726;SDS011;9492;51.888;5.186;2024-01-30T07:49:46;12.77;;;6.23;;
18726;SDS011;9492;51.888;5.186;2024-01-30T07:52:13;9.17;;;5.83;;
18726;SDS011;9492;51.888;5.186;2024-01-30T07:54:48;12.97;;;6.90;;
18726;SDS011;9492;51.888;5.186;2024-01-30T07:57:14;9.00;;;5.80;;
18726;SDS011;9492;51.888;5.186;2024-01-30T07:59:43;9.40;;;6.50;;
18726;SDS011;9492;51.888;5.186;2024-01-30T08:02:10;9.23;;;6.27;;
18726;SDS011;9492;51.888;5.186;2024-01-30T08:04:36;11.80;;;6.47;;
18726;SDS011;9492;51.888;5.186;2024-01-30T08:07:02;11.23;;;6.10;;
18726;SDS011;9492;51.888;5.186;2024-01-30T08:09:28;9.37;;;5.67;;
18726;SDS011;9492;51.888;5.186;2024-01-30T08:11:54;8.73;;;6.17;;
18726;SDS011;9492;51.888;5.186;2024-01-30T08:14:20;8.23;;;6.13;;
18726;SDS011;9492;51.888;5.186;2024-01-30T08:16:47;10.60;;;6.10;;
18726;SDS011;9492;51.888;5.186;2024-01-30T08:19:14;10.47;;;6.17;;
18726;SDS011;9492;51.888;5.186;2024-01-30T08:21:40;10.07;;;6.13;;
18726;SDS011;9492;51.888;5.186;2024-01-30T08:24:06;9.83;;;6.27;;
18726;SDS011;9492;51.888;5.186;2024-01-30T08:26:32;10.87;;;6.27;;
18726;SDS011;9492;51.888;5.186;2024-01-30T08:28:58;9.50;;;5.90;;
18726;SDS011;9492;51.888;5.186;2024-01-30T08:31:25;10.87;;;6.50;;
18726;SDS011;9492;51.888;5.186;2024-01-30T08:33:51;10.70;;;5.83;;
18726;SDS011;9492;51.888;5.186;2024-01-30T08:36:17;11.00;;;6.23;;
18726;SDS011;9492;51.888;5.186;2024-01-30T08:38:43;9.70;;;5.83;;
18726;SDS011;9492;51.888;5.186;2024-01-30T08:41:09;8.77;;;6.07;;
18726;SDS011;9492;51.888;5.186;2024-01-30T08:43:35;9.57;;;6.00;;
18726;SDS011;9492;51.888;5.186;2024-01-30T08:46:02;11.93;;;6.77;;
18726;SDS011;9492;51.888;5.186;2024-01-30T08:48:28;9.53;;;6.17;;
18726;SDS011;9492;51.888;5.186;2024-01-30T08:50:54;12.17;;;7.03;;
18726;SDS011;9492;51.888;5.186;2024-01-30T08:53:20;8.93;;;6.37;;
18726;SDS011;9492;51.888;5.186;2024-01-30T08:55:46;9.37;;;6.50;;
18726;SDS011;9492;51.888;5.186;2024-01-30T08:58:12;13.10;;;7.23;;
18726;SDS011;9492;51.888;5.186;2024-01-30T09:00:38;9.87;;;6.57;;
18726;SDS011;9492;51.888;5.186;2024-01-30T09:03:04;9.40;;;6.60;;
18726;SDS011;9492;51.888;5.186;2024-01-30T09:05:30;10.57;;;7.20;;
18726;SDS011;9492;51.888;5.186;2024-01-30T09:07:56;8.00;;;5.77;;
18726;SDS011;9492;51.888;5.186;2024-01-30T09:10:22;12.13;;;7.43;;
18726;SDS011;9492;51.888;5.186;2024-01-30T09:12:48;10.70;;;7.10;;
18726;SDS011;9492;51.888;5.186;2024-01-30T09:15:14;11.43;;;6.80;;
18726;SDS011;9492;51.888;5.186;2024-01-30T09:17:40;12.07;;;7.20;;
18726;SDS011;9492;51.888;5.186;2024-01-30T09:20:07;10.43;;;6.63;;
18726;SDS011;9492;51.888;5.186;2024-01-30T09:22:34;8.83;;;6.50;;
18726;SDS011;9492;51.888;5.186;2024-01-30T09:25:00;12.30;;;6.27;;
18726;SDS011;9492;51.888;5.186;2024-01-30T09:27:26;8.60;;;6.50;;
18726;SDS011;9492;51.888;5.186;2024-01-30T09:29:52;13.10;;;6.80;;
18726;SDS011;9492;51.888;5.186;2024-01-30T09:32:18;9.97;;;6.67;;
18726;SDS011;9492;51.888;5.186;2024-01-30T09:34:44;9.30;;;5.70;;
18726;SDS011;9492;51.888;5.186;2024-01-30T09:37:10;10.70;;;6.90;;
18726;SDS011;9492;51.888;5.186;2024-01-30T09:39:36;10.53;;;6.63;;
18726;SDS011;9492;51.888;5.186;2024-01-30T09:42:07;10.53;;;6.83;;
18726;SDS011;9492;51.888;5.186;2024-01-30T09:44:36;11.23;;;7.20;;
18726;SDS011;9492;51.888;5.186;2024-01-30T09:47:03;11.80;;;6.13;;
18726;SDS011;9492;51.888;5.186;2024-01-30T09:49:33;11.13;;;6.80;;
18726;SDS011;9492;51.888;5.186;2024-01-30T09:52:00;13.77;;;7.50;;
18726;SDS011;9492;51.888;5.186;2024-01-30T09:54:28;11.23;;;7.40;;
18726;SDS011;9492;51.888;5.186;2024-01-30T09:56:55;9.50;;;6.47;;
18726;SDS011;9492;51.888;5.186;2024-01-30T09:59:21;10.97;;;6.07;;
18726;SDS011;9492;51.888;5.186;2024-01-30T10:01:47;13.17;;;6.93;;
18726;SDS011;9492;51.888;5.186;2024-01-30T10:04:13;9.90;;;6.80;;
18726;SDS011;9492;51.888;5.186;2024-01-30T10:06:40;11.10;;;6.83;;
18726;SDS011;9492;51.888;5.186;2024-01-30T10:09:06;11.87;;;6.27;;
18726;SDS011;9492;51.888;5.186;2024-01-30T10:11:32;10.30;;;7.03;;
18726;SDS011;9492;51.888;5.186;2024-01-30T10:13:58;15.63;;;7.07;;
18726;SDS011;9492;51.888;5.186;2024-01-30T10:16:24;12.30;;;6.80;;
18726;SDS011;9492;51.888;5.186;2024-01-30T10:18:50;9.53;;;6.80;;
18726;SDS011;9492;51.888;5.186;2024-01-30T10:21:16;12.70;;;7.00;;
18726;SDS011;9492;51.888;5.186;2024-01-30T10:23:43;14.27;;;6.87;;
18726;SDS011;9492;51.888;5.186;2024-01-30T10:26:12;14.67;;;6.87;;
18726;SDS011;9492;51.888;5.186;2024-01-30T10:28:38;19.87;;;6.73;;
18726;SDS011;9492;51.888;5.186;2024-01-30T10:31:04;10.40;;;6.17;;
18726;SDS011;9492;51.888;5.186;2024-01-30T10:33:30;11.13;;;6.23;;
18726;SDS011;9492;51.888;5.186;2024-01-30T10:35:58;8.03;;;5.50;;
18726;SDS011;9492;51.888;5.186;2024-01-30T10:38:26;13.03;;;5.50;;
18726;SDS011;9492;51.888;5.186;2024-01-30T10:40:56;8.13;;;4.90;;
18726;SDS011;9492;51.888;5.186;2024-01-30T10:43:22;6.50;;;4.50;;
18726;SDS011;9492;51.888;5.186;2024-01-30T10:45:49;7.80;;;4.60;;
18726;SDS011;9492;51.888;5.186;2024-01-30T10:48:15;6.37;;;4.23;;
18726;SDS011;9492;51.888;5.186;2024-01-30T10:50:43;6.20;;;4.23;;
18726;SDS011;9492;51.888;5.186;2024-01-30T10:53:11;7.97;;;4.53;;
18726;SDS011;9492;51.888;5.186;2024-01-30T10:55:37;4.67;;;3.70;;
18726;SDS011;9492;51.888;5.186;2024-01-30T10:58:04;7.00;;;4.60;;
18726;SDS011;9492;51.888;5.186;2024-01-30T11:00:30;7.13;;;4.03;;
18726;SDS011;9492;51.888;5.186;2024-01-30T11:03:02;9.07;;;4.67;;
18726;SDS011;9492;51.888;5.186;2024-01-30T11:05:28;7.00;;;4.60;;
18726;SDS011;9492;51.888;5.186;2024-01-30T11:07:55;7.33;;;4.13;;
18726;SDS011;9492;51.888;5.186;2024-01-30T11:10:20;5.80;;;3.70;;
18726;SDS011;9492;51.888;5.186;2024-01-30T11:12:47;7.07;;;3.27;;
18726;SDS011;9492;51.888;5.186;2024-01-30T11:15:16;6.37;;;2.83;;
18726;SDS011;9492;51.888;5.186;2024-01-30T11:20:15;7.37;;;2.90;;
18726;SDS011;9492;51.888;5.186;2024-01-30T11:22:42;3.83;;;2.67;;
18726;SDS011;9492;51.888;5.186;2024-01-30T11:25:15;6.83;;;2.70;;
18726;SDS011;9492;51.888;5.186;2024-01-30T11:27:45;8.50;;;3.40;;
18726;SDS011;9492;51.888;5.186;2024-01-30T11:30:27;6.43;;;3.43;;
18726;SDS011;9492;51.888;5.186;2024-01-30T11:33:06;5.23;;;2.87;;
18726;SDS011;9492;51.888;5.186;2024-01-30T11:35:40;4.63;;;2.80;;
18726;SDS011;9492;51.888;5.186;2024-01-30T11:38:07;3.87;;;2.27;;
18726;SDS011;9492;51.888;5.186;2024-01-30T11:40:33;5.80;;;2.40;;
18726;SDS011;9492;51.888;5.186;2024-01-30T11:43:00;5.50;;;2.57;;
18726;SDS011;9492;51.888;5.186;2024-01-30T11:45:26;2.57;;;2.33;;
18726;SDS011;9492;51.888;5.186;2024-01-30T11:47:53;2.10;;;1.80;;
18726;SDS011;9492;51.888;5.186;2024-01-30T11:50:19;4.43;;;1.50;;
18726;SDS011;9492;51.888;5.186;2024-01-30T11:52:45;1.93;;;1.10;;
18726;SDS011;9492;51.888;5.186;2024-01-30T11:55:12;3.17;;;1.20;;
18726;SDS011;9492;51.888;5.186;2024-01-30T11:57:38;5.80;;;1.20;;
18726;SDS011;9492;51.888;5.186;2024-01-30T12:00:05;3.90;;;1.47;;
18726;SDS011;9492;51.888;5.186;2024-01-30T12:02:36;2.23;;;1.10;;
18726;SDS011;9492;51.888;5.186;2024-01-30T12:05:05;3.23;;;1.40;;
18726;SDS011;9492;51.888;5.186;2024-01-30T12:07:32;4.63;;;1.33;;
18726;SDS011;9492;51.888;5.186;2024-01-30T12:09:58;2.00;;;1.20;;
18726;SDS011;9492;51.888;5.186;2024-01-30T12:12:28;4.47;;;1.00;;
18726;SDS011;9492;51.888;5.186;2024-01-30T12:14:55;2.37;;;1.20;;
18726;SDS011;9492;51.888;5.186;2024-01-30T12:17:28;2.80;;;0.93;;
18726;SDS011;9492;51.888;5.186;2024-01-30T12:22:36;2.37;;;1.10;;
18726;SDS011;9492;51.888;5.186;2024-01-30T12:25:04;1.33;;;1.00;;
18726;SDS011;9492;51.888;5.186;2024-01-30T12:27:30;3.10;;;1.00;;
18726;SDS011;9492;51.888;5.186;2024-01-30T12:29:57;2.30;;;1.13;;
18726;SDS011;9492;51.888;5.186;2024-01-30T12:32:23;4.63;;;1.30;;
18726;SDS011;9492;51.888;5.186;2024-01-30T12:34:49;4.57;;;1.90;;
18726;SDS011;9492;51.888;5.186;2024-01-30T12:37:15;9.33;;;2.40;;
18726;SDS011;9492;51.888;5.186;2024-01-30T12:39:47;8.83;;;2.83;;
18726;SDS011;9492;51.888;5.186;2024-01-30T12:42:13;5.93;;;2.23;;
18726;SDS011;9492;51.888;5.186;2024-01-30T12:44:39;5.07;;;2.17;;
18726;SDS011;9492;51.888;5.186;2024-01-30T12:47:08;6.60;;;2.40;;
18726;SDS011;9492;51.888;5.186;2024-01-30T12:49:35;4.43;;;2.07;;
18726;SDS011;9492;51.888;5.186;2024-01-30T12:52:01;7.37;;;2.13;;
18726;SDS011;9492;51.888;5.186;2024-01-30T12:54:27;8.43;;;2.37;;
18726;SDS011;9492;51.888;5.186;2024-01-30T12:56:53;5.23;;;2.13;;
18726;SDS011;9492;51.888;5.186;2024-01-30T12:59:19;5.43;;;2.10;;
18726;SDS011;9492;51.888;5.186;2024-01-30T13:01:45;8.73;;;2.50;;
18726;SDS011;9492;51.888;5.186;2024-01-30T13:04:11;5.43;;;2.20;;
18726;SDS011;9492;51.888;5.186;2024-01-30T13:06:37;7.03;;;2.50;;
18726;SDS011;9492;51.888;5.186;2024-01-30T13:09:03;3.93;;;2.33;;
18726;SDS011;9492;51.888;5.186;2024-01-30T13:11:30;3.97;;;2.30;;
18726;SDS011;9492;51.888;5.186;2024-01-30T13:13:56;4.63;;;2.07;;
18726;SDS011;9492;51.888;5.186;2024-01-30T13:16:23;4.37;;;1.90;;
18726;SDS011;9492;51.888;5.186;2024-01-30T13:18:49;6.93;;;2.37;;
18726;SDS011;9492;51.888;5.186;2024-01-30T13:21:15;6.30;;;2.07;;
18726;SDS011;9492;51.888;5.186;2024-01-30T13:23:41;4.23;;;1.70;;
18726;SDS011;9492;51.888;5.186;2024-01-30T13:26:08;5.00;;;1.93;;
18726;SDS011;9492;51.888;5.186;2024-01-30T13:28:34;6.20;;;2.00;;
18726;SDS011;9492;51.888;5.186;2024-01-30T13:30:59;6.43;;;1.33;;
18726;SDS011;9492;51.888;5.186;2024-01-30T13:33:26;2.10;;;1.30;;
18726;SDS011;9492;51.888;5.186;2024-01-30T13:35:52;2.87;;;1.27;;
18726;SDS011;9492;51.888;5.186;2024-01-30T13:38:18;2.17;;;1.13;;
18726;SDS011;9492;51.888;5.186;2024-01-30T13:40:44;2.67;;;1.30;;
18726;SDS011;9492;51.888;5.186;2024-01-30T13:43:09;3.47;;;1.60;;
18726;SDS011;9492;51.888;5.186;2024-01-30T13:45:35;2.33;;;1.40;;
18726;SDS011;9492;51.888;5.186;2024-01-30T13:48:02;3.40;;;1.83;;
18726;SDS011;9492;51.888;5.186;2024-01-30T13:50:28;3.77;;;1.57;;
18726;SDS011;9492;51.888;5.186;2024-01-30T13:52:54;2.00;;;1.60;;
18726;SDS011;9492;51.888;5.186;2024-01-30T13:55:20;4.83;;;2.47;;
18726;SDS011;9492;51.888;5.186;2024-01-30T13:57:46;5.10;;;2.43;;
18726;SDS011;9492;51.888;5.186;2024-01-30T14:00:12;4.70;;;2.33;;
18726;SDS011;9492;51.888;5.186;2024-01-30T14:02:41;6.00;;;2.80;;
18726;SDS011;9492;51.888;5.186;2024-01-30T14:05:07;3.83;;;2.30;;
18726;SDS011;9492;51.888;5.186;2024-01-30T14:07:33;5.43;;;2.73;;
18726;SDS011;9492;51.888;5.186;2024-01-30T14:09:59;5.53;;;2.30;;
18726;SDS011;9492;51.888;5.186;2024-01-30T14:12:25;4.63;;;2.33;;
18726;SDS011;9492;51.888;5.186;2024-01-30T14:14:51;4.43;;;2.43;;
18726;SDS011;9492;51.888;5.186;2024-01-30T14:17:17;3.47;;;2.30;;
18726;SDS011;9492;51.888;5.186;2024-01-30T14:19:43;3.10;;;1.97;;
18726;SDS011;9492;51.888;5.186;2024-01-30T14:22:09;3.00;;;1.97;;
18726;SDS011;9492;51.888;5.186;2024-01-30T14:24:35;5.40;;;2.30;;
18726;SDS011;9492;51.888;5.186;2024-01-30T14:27:02;5.07;;;1.90;;
18726;SDS011;9492;51.888;5.186;2024-01-30T14:29:28;5.40;;;1.83;;
18726;SDS011;9492;51.888;5.186;2024-01-30T14:31:54;4.47;;;1.70;;
18726;SDS011;9492;51.888;5.186;2024-01-30T14:34:21;4.27;;;1.77;;
18726;SDS011;9492;51.888;5.186;2024-01-30T14:36:47;3.30;;;1.63;;
18726;SDS011;9492;51.888;5.186;2024-01-30T14:39:13;7.77;;;1.87;;
18726;SDS011;9492;51.888;5.186;2024-01-30T14:41:39;2.57;;;1.67;;
18726;SDS011;9492;51.888;5.186;2024-01-30T14:44:05;2.40;;;1.73;;
18726;SDS011;9492;51.888;5.186;2024-01-30T14:46:32;4.20;;;1.60;;
18726;SDS011;9492;51.888;5.186;2024-01-30T14:48:59;3.57;;;1.57;;
18726;SDS011;9492;51.888;5.186;2024-01-30T14:51:28;5.13;;;1.67;;
18726;SDS011;9492;51.888;5.186;2024-01-30T14:53:55;3.23;;;1.40;;
18726;SDS011;9492;51.888;5.186;2024-01-30T14:56:21;2.83;;;2.00;;
18726;SDS011;9492;51.888;5.186;2024-01-30T14:58:47;2.70;;;1.50;;
18726;SDS011;9492;51.888;5.186;2024-01-30T15:01:13;3.17;;;1.60;;
18726;SDS011;9492;51.888;5.186;2024-01-30T15:03:39;4.27;;;1.50;;
18726;SDS011;9492;51.888;5.186;2024-01-30T15:06:05;4.43;;;2.37;;
18726;SDS011;9492;51.888;5.186;2024-01-30T15:08:32;5.13;;;1.63;;
18726;SDS011;9492;51.888;5.186;2024-01-30T15:10:58;4.50;;;1.70;;